createdAt,value
2018-11-11T00:00:06.579Z,8.20
2018-11-11T00:01:12.423Z,8.22
2018-11-11T00:02:18.207Z,8.21
2018-11-11T00:03:23.975Z,8.25
2018-11-11T00:04:29.774Z,8.22
2018-11-11T00:05:35.549Z,8.20
2018-11-11T00:06:41.377Z,8.20
2018-11-11T00:07:46.824Z,8.24
2018-11-11T00:08:52.611Z,8.23
2018-11-11T00:09:58.399Z,8.26
2018-11-11T00:11:03.882Z,8.30
2018-11-11T00:12:09.685Z,8.37
2018-11-11T00:13:15.493Z,8.41
2018-11-11T00:14:21.272Z,8.38
2018-11-11T00:15:26.698Z,8.28
2018-11-11T00:16:32.456Z,8.33
2018-11-11T00:17:38.285Z,8.28
2018-11-11T00:18:44.108Z,8.32
2018-11-11T00:19:49.876Z,8.43
2018-11-11T00:21:01.315Z,8.45
2018-11-11T00:22:06.749Z,8.38
2018-11-11T00:23:12.529Z,8.30
2018-11-11T00:24:18.312Z,8.41
2018-11-11T00:25:23.763Z,8.48
2018-11-11T00:26:29.571Z,8.46
2018-11-11T00:27:35.356Z,8.40
2018-11-11T00:28:41.225Z,8.33
2018-11-11T00:29:47.185Z,8.45
2018-11-11T00:30:52.920Z,8.44
2018-11-11T00:31:58.737Z,8.43
2018-11-11T00:33:04.171Z,8.49
2018-11-11T00:34:10.021Z,8.41
2018-11-11T00:35:15.762Z,8.36
2018-11-11T00:36:21.577Z,8.37
2018-11-11T00:37:27.616Z,8.38
2018-11-11T00:38:33.387Z,8.40
2018-11-11T00:39:39.291Z,8.38
2018-11-11T00:40:45.217Z,8.55
2018-11-11T00:41:51.020Z,8.47
2018-11-11T00:42:56.773Z,8.25
2018-11-11T00:44:02.583Z,8.32
2018-11-11T00:45:07.753Z,8.26
2018-11-11T00:46:13.547Z,8.30
2018-11-11T00:47:19.332Z,8.27
2018-11-11T00:48:25.119Z,8.33
2018-11-11T00:49:30.953Z,8.35
2018-11-11T00:50:36.782Z,8.36
2018-11-11T00:51:42.567Z,8.32
2018-11-11T00:52:48.344Z,8.27
2018-11-11T00:53:54.170Z,8.30
2018-11-11T00:54:59.942Z,8.38
2018-11-11T00:56:05.059Z,8.30
2018-11-11T00:57:10.851Z,8.31
2018-11-11T00:58:16.634Z,8.20
2018-11-11T00:59:22.468Z,8.26
2018-11-11T01:00:28.310Z,8.30
2018-11-11T01:01:34.102Z,8.34
2018-11-11T01:02:39.832Z,8.30
2018-11-11T01:03:45.633Z,8.25
2018-11-11T01:04:51.421Z,8.25
2018-11-11T01:05:56.885Z,8.18
2018-11-11T01:07:02.312Z,8.26
2018-11-11T01:08:08.115Z,8.20
2018-11-11T01:09:13.568Z,8.17
2018-11-11T01:10:19.469Z,8.11
2018-11-11T01:11:25.319Z,8.13
2018-11-11T01:12:31.157Z,8.12
2018-11-11T01:13:36.953Z,8.10
2018-11-11T01:14:42.775Z,8.15
2018-11-11T01:15:48.557Z,8.20
2018-11-11T01:16:54.335Z,8.20
2018-11-11T01:18:00.146Z,8.11
2018-11-11T01:19:05.258Z,8.12
2018-11-11T01:20:11.082Z,8.19
2018-11-11T01:21:16.842Z,8.19
2018-11-11T01:22:22.690Z,8.13
2018-11-11T01:23:30.621Z,8.21
2018-11-11T01:24:36.400Z,8.28
2018-11-11T01:25:42.166Z,8.38
2018-11-11T01:26:47.942Z,8.43
2018-11-11T01:27:53.740Z,8.52
2018-11-11T01:28:59.536Z,8.53
2018-11-11T01:30:04.616Z,8.46
2018-11-11T01:31:10.432Z,8.33
2018-11-11T01:32:16.247Z,8.32
2018-11-11T01:33:22.055Z,8.26
2018-11-11T01:34:27.835Z,8.32
2018-11-11T01:35:33.633Z,8.26
2018-11-11T01:36:39.460Z,8.26
2018-11-11T01:37:45.282Z,8.21
2018-11-11T01:38:51.113Z,8.10
2018-11-11T01:39:57.101Z,8.18
2018-11-11T01:41:02.926Z,8.14
2018-11-11T01:42:08.788Z,8.07
2018-11-11T01:43:14.627Z,8.05
2018-11-11T01:44:20.503Z,8.05
2018-11-11T01:45:26.344Z,8.07
2018-11-11T01:46:32.131Z,8.07
2018-11-11T01:47:37.940Z,8.10
2018-11-11T01:48:43.742Z,8.13
2018-11-11T01:49:49.504Z,8.17
2018-11-11T01:50:55.315Z,8.12
2018-11-11T01:52:01.165Z,8.13
2018-11-11T01:53:06.714Z,8.11
2018-11-11T01:54:12.536Z,8.08
2018-11-11T01:55:18.467Z,8.20
2018-11-11T01:56:24.252Z,8.23
2018-11-11T01:57:30.037Z,8.34
2018-11-11T01:58:35.830Z,8.33
2018-11-11T01:59:41.659Z,8.39
2018-11-11T02:00:47.415Z,8.36
2018-11-11T02:01:52.228Z,8.30
2018-11-11T02:02:58.069Z,8.24
2018-11-11T02:04:03.916Z,8.38
2018-11-11T02:05:15.206Z,8.43
2018-11-11T02:06:23.779Z,8.50
2018-11-11T02:07:29.611Z,8.76
2018-11-11T02:08:35.397Z,8.70
2018-11-11T02:09:41.202Z,8.61
2018-11-11T02:10:47.229Z,8.50
2018-11-11T02:11:53.073Z,8.45
2018-11-11T02:12:58.876Z,8.50
2018-11-11T02:14:04.289Z,8.65
2018-11-11T02:15:09.676Z,8.86
2018-11-11T02:16:15.459Z,9.02
2018-11-11T02:17:21.182Z,8.88
2018-11-11T02:18:26.966Z,8.65
2018-11-11T02:19:32.763Z,8.45
2018-11-11T02:20:38.636Z,8.37
2018-11-11T02:21:44.511Z,8.44
2018-11-11T02:22:50.465Z,8.45
2018-11-11T02:23:55.921Z,8.65
2018-11-11T02:25:01.735Z,8.59
2018-11-11T02:26:08.423Z,8.45
2018-11-11T02:27:15.416Z,8.51
2018-11-11T02:28:21.230Z,8.74
2018-11-11T02:29:26.956Z,8.91
2018-11-11T02:30:32.742Z,8.78
2018-11-11T02:31:38.503Z,8.64
2018-11-11T02:32:44.267Z,8.52
2018-11-11T02:33:50.057Z,8.74
2018-11-11T02:34:55.884Z,8.65
2018-11-11T02:36:01.648Z,8.56
2018-11-11T02:37:08.313Z,8.48
2018-11-11T02:38:14.109Z,8.44
2018-11-11T02:39:19.911Z,8.35
2018-11-11T02:40:25.678Z,8.34
2018-11-11T02:41:31.502Z,8.39
2018-11-11T02:42:37.011Z,8.48
2018-11-11T02:43:43.037Z,8.52
2018-11-11T02:44:48.784Z,8.53
2018-11-11T02:45:54.615Z,8.50
2018-11-11T02:47:00.402Z,8.47
2018-11-11T02:48:05.465Z,8.45
2018-11-11T02:49:11.195Z,8.73
2018-11-11T02:50:16.965Z,8.80
2018-11-11T02:51:22.788Z,8.68
2018-11-11T02:52:28.551Z,8.86
2018-11-11T02:53:34.316Z,8.75
2018-11-11T02:54:40.136Z,8.50
2018-11-11T02:55:45.936Z,8.47
2018-11-11T02:56:51.665Z,8.53
2018-11-11T02:57:57.435Z,8.51
2018-11-11T02:59:03.223Z,8.50
2018-11-11T03:00:08.353Z,8.44
2018-11-11T03:01:14.176Z,8.41
2018-11-11T03:02:19.970Z,8.42
2018-11-11T03:03:25.749Z,8.34
2018-11-11T03:04:31.626Z,8.41
2018-11-11T03:05:37.564Z,8.46
2018-11-11T03:06:43.386Z,8.54
2018-11-11T03:07:49.183Z,8.68
2018-11-11T03:08:56.279Z,8.53
2018-11-11T03:10:02.130Z,8.44
2018-11-11T03:11:07.971Z,8.44
2018-11-11T03:12:13.770Z,8.51
2018-11-11T03:13:19.579Z,8.50
2018-11-11T03:14:25.420Z,8.38
2018-11-11T03:15:31.260Z,8.39
2018-11-11T03:16:37.016Z,8.33
2018-11-11T03:17:42.824Z,8.27
2018-11-11T03:18:48.675Z,8.27
2018-11-11T03:19:54.456Z,8.14
2018-11-11T03:21:00.233Z,8.16
2018-11-11T03:22:06.032Z,8.25
2018-11-11T03:23:11.843Z,8.44
2018-11-11T03:24:17.567Z,8.44
2018-11-11T03:25:23.369Z,8.49
2018-11-11T03:26:29.230Z,8.32
2018-11-11T03:27:35.038Z,8.47
2018-11-11T03:28:40.802Z,8.44
2018-11-11T03:29:52.363Z,8.38
2018-11-11T03:30:58.157Z,8.23
2018-11-11T03:32:04.153Z,8.31
2018-11-11T03:33:09.979Z,8.33
2018-11-11T03:34:15.822Z,8.50
2018-11-11T03:35:21.595Z,8.51
2018-11-11T03:36:27.404Z,8.49
2018-11-11T03:37:34.189Z,8.63
2018-11-11T03:38:39.977Z,8.74
2018-11-11T03:39:45.771Z,8.65
2018-11-11T03:40:51.584Z,8.53
2018-11-11T03:41:57.358Z,8.61
2018-11-11T03:43:03.151Z,8.54
2018-11-11T03:44:09.856Z,8.70
2018-11-11T03:45:15.733Z,8.66
2018-11-11T03:46:21.582Z,8.68
2018-11-11T03:47:27.325Z,8.70
2018-11-11T03:48:33.114Z,9.00
2018-11-11T03:49:38.941Z,8.84
2018-11-11T03:50:45.637Z,8.76
2018-11-11T03:51:51.471Z,8.76
2018-11-11T03:52:57.254Z,8.67
2018-11-11T03:54:03.067Z,8.69
2018-11-11T03:55:08.519Z,8.68
2018-11-11T03:56:14.280Z,8.66
2018-11-11T03:57:20.156Z,8.60
2018-11-11T03:58:25.964Z,8.58
2018-11-11T03:59:31.749Z,8.56
2018-11-11T04:00:37.518Z,8.63
2018-11-11T04:01:43.311Z,8.67
2018-11-11T04:02:49.099Z,8.68
2018-11-11T04:03:54.909Z,8.66
2018-11-11T04:05:00.707Z,8.67
2018-11-11T04:06:06.531Z,8.62
2018-11-11T04:07:12.312Z,8.66
2018-11-11T04:08:18.075Z,8.68
2018-11-11T04:09:23.920Z,8.71
2018-11-11T04:10:29.791Z,8.65
2018-11-11T04:11:35.798Z,8.69
2018-11-11T04:12:41.625Z,8.84
2018-11-11T04:13:47.406Z,9.04
2018-11-11T04:14:53.185Z,9.12
2018-11-11T04:15:58.948Z,9.05
2018-11-11T04:17:04.783Z,9.03
2018-11-11T04:18:10.582Z,9.01
2018-11-11T04:19:16.309Z,9.00
2018-11-11T04:20:22.080Z,8.97
2018-11-11T04:21:27.915Z,8.90
2018-11-11T04:22:33.691Z,8.84
2018-11-11T04:23:39.495Z,8.89
2018-11-11T04:24:45.327Z,8.83
2018-11-11T04:25:51.119Z,8.82
2018-11-11T04:26:56.877Z,8.85
2018-11-11T04:28:02.684Z,8.75
2018-11-11T04:29:08.494Z,8.75
2018-11-11T04:30:14.274Z,8.73
2018-11-11T04:31:20.114Z,8.66
2018-11-11T04:32:28.190Z,8.63
2018-11-11T04:33:35.744Z,8.71
2018-11-11T04:34:41.477Z,8.68
2018-11-11T04:35:47.273Z,8.63
2018-11-11T04:36:53.088Z,8.62
2018-11-11T04:37:58.890Z,8.63
2018-11-11T04:39:08.447Z,8.59
2018-11-11T04:40:15.314Z,8.63
2018-11-11T04:41:21.090Z,8.71
2018-11-11T04:42:26.912Z,8.62
2018-11-11T04:43:32.712Z,8.66
2018-11-11T04:44:39.444Z,8.71
2018-11-11T04:45:46.148Z,8.67
2018-11-11T04:46:51.929Z,8.67
2018-11-11T04:47:57.750Z,8.69
2018-11-11T04:49:03.526Z,8.76
2018-11-11T04:50:08.607Z,8.74
2018-11-11T04:51:14.446Z,8.68
2018-11-11T04:52:21.182Z,8.58
2018-11-11T04:53:27.880Z,8.58
2018-11-11T04:54:33.650Z,8.70
2018-11-11T04:55:39.457Z,8.63
2018-11-11T04:56:45.256Z,8.64
2018-11-11T04:57:51.053Z,8.54
2018-11-11T04:58:56.844Z,8.59
2018-11-11T05:00:02.673Z,8.69
2018-11-11T05:01:08.518Z,8.66
2018-11-11T05:02:14.283Z,8.60
2018-11-11T05:03:20.088Z,8.81
2018-11-11T05:04:25.960Z,8.89
2018-11-11T05:05:31.921Z,9.10
2018-11-11T05:06:37.680Z,9.08
2018-11-11T05:07:43.501Z,9.13
2018-11-11T05:08:50.198Z,9.11
2018-11-11T05:09:55.945Z,8.86
2018-11-11T05:11:01.733Z,8.75
2018-11-11T05:12:07.429Z,8.74
2018-11-11T05:13:13.196Z,8.64
2018-11-11T05:14:18.975Z,8.62
2018-11-11T05:15:24.787Z,8.78
2018-11-11T05:16:30.579Z,8.85
2018-11-11T05:17:36.427Z,9.01
2018-11-11T05:18:42.947Z,9.13
2018-11-11T05:19:48.809Z,9.16
2018-11-11T05:20:54.600Z,9.21
2018-11-11T05:22:00.548Z,8.94
2018-11-11T05:23:06.577Z,8.83
2018-11-11T05:24:12.389Z,8.71
2018-11-11T05:25:18.188Z,8.65
2018-11-11T05:26:23.989Z,8.65
2018-11-11T05:27:29.853Z,8.65
2018-11-11T05:28:35.632Z,8.62
2018-11-11T05:29:41.437Z,8.62
2018-11-11T05:30:47.310Z,8.59
2018-11-11T05:31:53.302Z,8.71
2018-11-11T05:32:59.136Z,8.81
2018-11-11T05:34:04.208Z,8.84
2018-11-11T05:35:09.737Z,8.80
2018-11-11T05:36:15.578Z,8.67
2018-11-11T05:37:21.381Z,8.85
2018-11-11T05:38:27.188Z,8.70
2018-11-11T05:39:33.044Z,8.76
2018-11-11T05:40:38.880Z,8.68
2018-11-11T05:41:44.726Z,8.70
2018-11-11T05:42:50.527Z,8.61
2018-11-11T05:43:56.296Z,8.61
2018-11-11T05:45:02.073Z,8.60
2018-11-11T05:46:07.870Z,8.61
2018-11-11T05:47:13.697Z,8.62
2018-11-11T05:48:19.517Z,8.54
2018-11-11T05:49:25.340Z,8.56
2018-11-11T05:50:31.184Z,8.56
2018-11-11T05:51:37.564Z,8.49
2018-11-11T05:52:44.515Z,8.53
2018-11-11T05:53:50.644Z,8.53
2018-11-11T05:54:56.748Z,8.71
2018-11-11T05:56:03.232Z,8.57
2018-11-11T05:57:10.478Z,8.61
2018-11-11T05:58:17.020Z,8.66
2018-11-11T05:59:23.740Z,8.66
2018-11-11T06:00:30.084Z,8.68
2018-11-11T06:01:36.369Z,8.61
2018-11-11T06:02:42.536Z,8.63
2018-11-11T06:03:49.804Z,8.51
2018-11-11T06:04:57.097Z,8.56
2018-11-11T06:06:04.741Z,8.54
2018-11-11T06:07:11.466Z,8.48
2018-11-11T06:08:19.175Z,8.52
2018-11-11T06:09:25.731Z,8.46
2018-11-11T06:10:32.115Z,8.50
2018-11-11T06:11:38.410Z,8.44
2018-11-11T06:12:43.904Z,8.39
2018-11-11T06:13:49.727Z,8.37
2018-11-11T06:14:55.561Z,8.45
2018-11-11T06:16:01.359Z,8.39
2018-11-11T06:17:07.121Z,8.40
2018-11-11T06:18:12.916Z,8.38
2018-11-11T06:19:18.714Z,8.37
2018-11-11T06:20:24.462Z,8.37
2018-11-11T06:21:30.047Z,8.31
2018-11-11T06:22:35.924Z,8.33
2018-11-11T06:23:42.294Z,8.36
2018-11-11T06:24:48.999Z,8.33
2018-11-11T06:25:55.466Z,8.36
2018-11-11T06:27:01.396Z,8.39
2018-11-11T06:28:07.429Z,8.30
2018-11-11T06:29:13.240Z,8.25
2018-11-11T06:30:19.683Z,8.22
2018-11-11T06:31:26.676Z,8.38
2018-11-11T06:32:33.187Z,8.28
2018-11-11T06:33:39.105Z,8.28
2018-11-11T06:34:45.333Z,8.43
2018-11-11T06:35:51.562Z,8.66
2018-11-11T06:36:59.585Z,8.56
2018-11-11T06:38:05.983Z,8.50
2018-11-11T06:39:13.108Z,8.48
2018-11-11T06:40:19.091Z,8.46
2018-11-11T06:41:25.265Z,8.55
2018-11-11T06:42:31.104Z,8.45
2018-11-11T06:43:36.946Z,8.43
2018-11-11T06:44:42.797Z,8.42
2018-11-11T06:45:52.094Z,8.47
2018-11-11T06:46:58.327Z,8.40
2018-11-11T06:48:04.175Z,8.34
2018-11-11T06:49:10.131Z,8.47
2018-11-11T06:50:17.000Z,8.43
2018-11-11T06:51:24.107Z,8.52
2018-11-11T06:52:30.850Z,8.39
2018-11-11T06:53:37.619Z,8.27
2018-11-11T06:54:44.061Z,8.24
2018-11-11T06:55:50.258Z,8.31
2018-11-11T06:56:56.171Z,8.24
2018-11-11T06:58:02.483Z,8.35
2018-11-11T06:59:09.171Z,8.33
2018-11-11T07:00:17.606Z,8.47
2018-11-11T07:01:24.084Z,8.41
2018-11-11T07:02:29.741Z,8.39
2018-11-11T07:03:41.043Z,8.38
2018-11-11T07:04:47.221Z,8.33
2018-11-11T07:05:53.412Z,8.41
2018-11-11T07:06:59.316Z,8.45
2018-11-11T07:08:05.856Z,8.39
2018-11-11T07:09:12.387Z,8.40
2018-11-11T07:10:19.363Z,8.50
2018-11-11T07:11:25.477Z,8.45
2018-11-11T07:12:32.127Z,8.62
2018-11-11T07:13:38.516Z,8.67
2018-11-11T07:14:44.689Z,8.77
2018-11-11T07:15:50.699Z,8.97
2018-11-11T07:16:56.920Z,8.94
2018-11-11T07:18:02.949Z,8.87
2018-11-11T07:19:10.055Z,8.71
2018-11-11T07:20:15.942Z,8.75
2018-11-11T07:21:21.779Z,8.83
2018-11-11T07:22:27.627Z,8.82
2018-11-11T07:23:33.525Z,8.78
2018-11-11T07:24:40.167Z,8.89
2018-11-11T07:25:46.506Z,8.97
2018-11-11T07:26:52.288Z,8.86
2018-11-11T07:27:58.097Z,8.73
2018-11-11T07:29:03.923Z,8.68
2018-11-11T07:30:09.035Z,8.75
2018-11-11T07:31:19.417Z,8.72
2018-11-11T07:32:27.852Z,8.72
2018-11-11T07:33:34.115Z,8.75
2018-11-11T07:34:41.085Z,8.70
2018-11-11T07:35:47.677Z,8.67
2018-11-11T07:36:54.225Z,8.85
2018-11-11T07:38:00.778Z,8.85
2018-11-11T07:39:06.968Z,8.80
2018-11-11T07:40:13.574Z,8.79
2018-11-11T07:41:20.092Z,8.80
2018-11-11T07:42:26.325Z,8.80
2018-11-11T07:43:32.628Z,8.82
2018-11-11T07:44:39.136Z,8.91
2018-11-11T07:45:45.048Z,8.86
2018-11-11T07:46:51.189Z,8.86
2018-11-11T07:47:57.342Z,8.86
2018-11-11T07:49:03.609Z,8.99
2018-11-11T07:50:09.983Z,8.98
2018-11-11T07:51:16.495Z,9.06
2018-11-11T07:52:22.602Z,9.00
2018-11-11T07:53:28.701Z,9.07
2018-11-11T07:54:35.113Z,9.15
2018-11-11T07:55:41.962Z,9.11
2018-11-11T07:56:48.173Z,9.24
2018-11-11T07:57:54.549Z,9.31
2018-11-11T07:59:00.487Z,9.20
2018-11-11T08:00:06.500Z,9.21
2018-11-11T08:01:12.959Z,9.33
2018-11-11T08:02:19.323Z,9.24
2018-11-11T08:03:27.166Z,9.12
2018-11-11T08:04:40.157Z,9.15
2018-11-11T08:05:46.409Z,9.21
2018-11-11T08:06:52.628Z,9.28
2018-11-11T08:07:58.811Z,9.20
2018-11-11T08:09:05.425Z,9.21
2018-11-11T08:10:12.105Z,9.19
2018-11-11T08:23:33.736Z,10.06
2018-11-11T08:24:48.937Z,10.16
2018-11-11T08:25:57.311Z,10.28
2018-11-11T08:27:05.080Z,10.19
2018-11-11T08:28:15.105Z,10.04
2018-11-11T08:29:21.635Z,10.22
2018-11-11T08:30:29.642Z,10.37
2018-11-11T08:31:39.965Z,10.34
2018-11-11T08:32:47.920Z,10.22
2018-11-11T08:33:56.865Z,10.18
2018-11-11T08:35:04.337Z,10.20
2018-11-11T08:36:14.015Z,10.40
2018-11-11T08:37:20.456Z,10.41
2018-11-11T08:38:30.181Z,10.50
2018-11-11T08:39:36.944Z,10.45
2018-11-11T08:40:45.982Z,10.32
2018-11-11T08:41:55.842Z,10.50
2018-11-11T08:43:05.910Z,10.60
2018-11-11T08:44:12.875Z,10.72
2018-11-11T08:45:21.613Z,10.92
2018-11-11T08:46:30.361Z,11.05
2018-11-11T08:47:37.997Z,11.02
2018-11-11T08:48:48.378Z,11.04
2018-11-11T08:49:57.181Z,10.97
2018-11-11T08:51:05.041Z,10.82
2018-11-11T08:52:15.956Z,10.68
2018-11-11T08:53:23.108Z,10.68
2018-11-11T08:54:30.557Z,10.56
2018-11-11T08:55:40.777Z,10.76
2018-11-11T08:56:50.576Z,10.47
2018-11-11T08:57:58.192Z,10.59
2018-11-11T08:59:07.139Z,10.71
2018-11-11T09:00:18.390Z,10.86
2018-11-11T09:01:27.420Z,10.84
2018-11-11T09:02:34.091Z,10.96
2018-11-11T09:03:40.859Z,11.10
2018-11-11T09:04:48.772Z,11.13
2018-11-11T09:05:57.478Z,11.17
2018-11-11T09:07:11.875Z,11.13
2018-11-11T09:08:24.217Z,11.20
2018-11-11T09:09:33.607Z,11.17
2018-11-11T09:10:46.230Z,11.23
2018-11-11T09:11:54.529Z,11.26
2018-11-11T09:13:04.795Z,11.31
2018-11-11T09:14:13.306Z,11.36
2018-11-11T09:15:22.869Z,11.45
2018-11-11T09:16:32.128Z,11.49
2018-11-11T09:17:42.519Z,11.62
2018-11-11T09:18:49.625Z,11.69
2018-11-11T09:19:56.523Z,11.59
2018-11-11T09:21:04.347Z,11.58
2018-11-11T09:22:11.452Z,11.49
2018-11-11T09:23:20.256Z,11.62
2018-11-11T09:24:27.182Z,11.62
2018-11-11T09:25:37.035Z,11.39
2018-11-11T09:26:48.328Z,11.45
2018-11-11T09:28:00.149Z,11.42
2018-11-11T09:29:14.175Z,11.38
2018-11-11T09:30:24.396Z,11.37
2018-11-11T09:31:33.267Z,11.52
2018-11-11T09:32:43.836Z,11.46
2018-11-11T09:33:51.866Z,11.48
2018-11-11T09:35:00.749Z,11.55
2018-11-11T09:36:07.829Z,11.61
2018-11-11T09:37:15.691Z,11.60
2018-11-11T09:38:22.411Z,11.64
2018-11-11T09:39:30.850Z,11.59
2018-11-11T09:40:38.625Z,11.48
2018-11-11T09:41:44.642Z,11.46
2018-11-11T09:42:52.018Z,11.45
2018-11-11T09:43:58.165Z,11.45
2018-11-11T09:45:10.210Z,11.43
2018-11-11T09:46:16.436Z,11.43
2018-11-11T09:47:25.014Z,11.39
2018-11-11T09:48:35.583Z,11.44
2018-11-11T09:49:46.585Z,11.49
2018-11-11T09:50:57.942Z,11.43
2018-11-11T09:52:06.017Z,11.37
2018-11-11T09:53:15.910Z,11.32
2018-11-11T09:54:22.580Z,11.29
2018-11-11T09:55:32.003Z,11.09
2018-11-11T09:56:42.864Z,11.11
2018-11-11T09:57:50.770Z,11.11
2018-11-11T09:58:56.748Z,11.23
2018-11-11T10:00:03.084Z,11.31
2018-11-11T10:01:12.107Z,11.22
2018-11-11T10:02:17.970Z,11.36
2018-11-11T10:03:25.050Z,11.45
2018-11-11T10:04:39.198Z,11.27
2018-11-11T10:05:48.406Z,11.27
2018-11-11T10:06:55.257Z,11.28
2018-11-11T10:08:01.448Z,11.11
2018-11-11T10:09:07.137Z,11.11
2018-11-11T10:10:19.537Z,10.97
2018-11-11T10:11:25.483Z,10.91
2018-11-11T10:12:33.796Z,11.05
2018-11-11T10:13:42.095Z,11.25
2018-11-11T10:14:52.433Z,11.25
2018-11-11T10:16:00.564Z,11.23
2018-11-11T10:17:11.801Z,11.32
2018-11-11T10:18:19.486Z,11.12
2018-11-11T10:19:27.429Z,11.01
2018-11-11T10:20:38.699Z,10.98
2018-11-11T10:21:47.836Z,10.96
2018-11-11T10:22:57.982Z,11.14
2018-11-11T10:24:05.779Z,11.00
2018-11-11T10:25:14.521Z,11.07
2018-11-11T10:26:24.173Z,11.00
2018-11-11T10:27:34.050Z,11.06
2018-11-11T10:28:40.836Z,10.96
2018-11-11T10:29:49.556Z,10.95
2018-11-11T10:31:03.210Z,10.98
2018-11-11T10:32:09.918Z,11.03
2018-11-11T10:33:21.325Z,11.10
2018-11-11T10:34:28.141Z,11.18
2018-11-11T10:35:35.264Z,11.24
2018-11-11T10:36:45.789Z,11.38
2018-11-11T10:37:53.825Z,11.45
2018-11-11T10:39:01.913Z,11.30
2018-11-11T10:40:11.666Z,11.31
2018-11-11T10:41:20.208Z,11.36
2018-11-11T10:42:26.892Z,11.43
2018-11-11T10:43:34.754Z,11.40
2018-11-11T10:44:41.876Z,11.29
2018-11-11T10:45:49.485Z,11.34
2018-11-11T10:46:58.132Z,11.21
2018-11-11T10:48:06.835Z,11.25
2018-11-11T10:49:13.452Z,11.30
2018-11-11T10:50:21.394Z,11.20
2018-11-11T10:51:30.254Z,11.14
2018-11-11T10:52:38.456Z,11.23
2018-11-11T10:53:47.565Z,11.16
2018-11-11T10:55:00.386Z,11.18
2018-11-11T10:56:06.660Z,11.21
2018-11-11T10:57:13.702Z,11.38
2018-11-11T10:58:23.977Z,11.48
2018-11-11T10:59:34.185Z,11.49
2018-11-11T11:00:43.865Z,11.55
2018-11-11T11:01:55.260Z,11.90
2018-11-11T11:03:03.168Z,12.10
2018-11-11T11:04:15.962Z,12.23
2018-11-11T11:05:25.910Z,12.23
2018-11-11T11:06:38.516Z,12.27
2018-11-11T11:07:45.938Z,12.44
2018-11-11T11:08:53.965Z,12.25
2018-11-11T11:10:03.185Z,12.41
2018-11-11T11:11:11.364Z,12.41
2018-11-11T11:12:22.601Z,12.45
2018-11-11T11:13:37.175Z,12.65
2018-11-11T11:14:46.846Z,12.73
2018-11-11T11:15:59.093Z,12.60
2018-11-11T11:17:07.377Z,12.52
2018-11-11T11:18:14.800Z,12.52
2018-11-11T11:19:29.993Z,12.64
2018-11-11T11:20:37.581Z,12.86
2018-11-11T11:21:46.454Z,12.99
2018-11-11T11:22:52.914Z,12.87
2018-11-11T11:24:05.019Z,12.88
2018-11-11T11:25:17.105Z,13.06
2018-11-11T11:26:26.815Z,13.21
2018-11-11T11:27:33.528Z,13.10
2018-11-11T11:28:41.742Z,13.20
2018-11-11T11:29:54.330Z,13.28
2018-11-11T11:31:06.857Z,13.10
2018-11-11T11:32:16.240Z,13.23
2018-11-11T11:33:27.835Z,13.32
2018-11-11T11:34:35.983Z,12.90
2018-11-11T11:35:50.381Z,12.99
2018-11-11T11:36:59.562Z,12.99
2018-11-11T11:38:08.301Z,13.19
2018-11-11T11:39:17.585Z,13.26
2018-11-11T11:40:24.695Z,13.24
2018-11-11T11:41:34.214Z,13.22
2018-11-11T11:42:43.067Z,13.07
2018-11-11T11:43:52.333Z,13.24
2018-11-11T11:45:06.390Z,13.21
2018-11-11T11:46:14.995Z,13.20
2018-11-11T11:47:25.776Z,13.36
2018-11-11T11:48:33.661Z,13.38
2018-11-11T11:49:43.906Z,13.24
2018-11-11T11:50:53.710Z,13.39
2018-11-11T11:52:01.447Z,13.55
2018-11-11T11:53:11.892Z,13.61
2018-11-11T11:54:20.008Z,13.51
2018-11-11T11:55:32.914Z,13.60
2018-11-11T11:56:42.940Z,13.52
2018-11-11T11:57:50.051Z,13.63
2018-11-11T11:59:02.090Z,13.58
2018-11-11T12:00:09.604Z,13.76
2018-11-11T12:01:18.118Z,13.62
2018-11-11T12:02:24.578Z,13.62
2018-11-11T12:03:31.004Z,13.78
2018-11-11T12:04:40.250Z,13.63
2018-11-11T12:05:51.618Z,13.56
2018-11-11T12:06:57.690Z,13.66
2018-11-11T12:08:03.574Z,13.73
2018-11-11T12:09:11.208Z,13.77
2018-11-11T12:10:19.260Z,13.99
2018-11-11T12:11:27.265Z,14.19
2018-11-11T12:12:34.743Z,14.20
2018-11-11T12:13:43.140Z,13.97
2018-11-11T12:14:53.149Z,14.02
2018-11-11T12:16:02.539Z,14.15
2018-11-11T12:17:10.891Z,14.08
2018-11-11T12:18:18.726Z,14.16
2018-11-11T12:19:26.328Z,14.18
2018-11-11T12:20:34.936Z,14.28
2018-11-11T12:21:42.943Z,14.35
2018-11-11T12:22:50.891Z,14.37
2018-11-11T12:23:58.823Z,14.23
2018-11-11T12:25:06.335Z,14.43
2018-11-11T12:26:12.339Z,14.51
2018-11-11T12:27:19.633Z,14.47
2018-11-11T12:28:26.066Z,14.50
2018-11-11T12:29:33.879Z,14.72
2018-11-11T12:30:44.234Z,14.61
2018-11-11T12:31:51.223Z,14.66
2018-11-11T12:33:01.634Z,14.63
2018-11-11T12:34:12.418Z,14.61
2018-11-11T12:35:20.822Z,14.57
2018-11-11T12:36:29.264Z,14.51
2018-11-11T12:37:40.516Z,14.62
2018-11-11T12:38:49.654Z,14.78
2018-11-11T12:39:58.190Z,14.67
2018-11-11T12:41:09.275Z,14.77
2018-11-11T12:42:18.939Z,14.90
2018-11-11T12:43:28.082Z,15.03
2018-11-11T12:44:37.911Z,15.11
2018-11-11T12:45:46.541Z,15.26
2018-11-11T12:46:55.213Z,15.47
2018-11-11T12:48:03.807Z,15.50
2018-11-11T12:49:14.067Z,15.44
2018-11-11T12:50:22.346Z,15.48
2018-11-11T12:51:32.026Z,15.63
2018-11-11T12:52:43.245Z,15.68
2018-11-11T12:53:50.874Z,15.65
2018-11-11T12:55:02.133Z,15.36
2018-11-11T12:56:12.898Z,15.50
2018-11-11T12:57:20.425Z,15.41
2018-11-11T12:58:29.181Z,15.55
2018-11-11T12:59:38.321Z,15.61
2018-11-11T13:00:48.152Z,15.47
2018-11-11T13:01:59.972Z,15.73
2018-11-11T13:03:07.605Z,15.82
2018-11-11T13:04:17.185Z,15.90
2018-11-11T13:05:27.628Z,15.98
2018-11-11T13:06:36.858Z,15.94
2018-11-11T13:07:46.324Z,15.75
2018-11-11T13:08:55.249Z,15.42
2018-11-11T13:10:03.201Z,14.94
2018-11-11T13:11:15.238Z,14.86
2018-11-11T13:12:27.397Z,14.94
2018-11-11T13:13:36.056Z,14.70
2018-11-11T13:14:45.792Z,14.47
2018-11-11T13:15:53.499Z,14.63
2018-11-11T13:17:04.570Z,14.45
2018-11-11T13:18:10.972Z,14.35
2018-11-11T13:19:18.326Z,14.37
2018-11-11T13:20:35.164Z,14.38
2018-11-11T13:21:47.327Z,14.36
2018-11-11T13:22:55.742Z,14.36
2018-11-11T13:24:06.003Z,14.50
2018-11-11T13:25:16.936Z,14.41
2018-11-11T13:26:25.311Z,14.38
2018-11-11T13:27:31.741Z,14.37
2018-11-11T13:28:40.272Z,14.27
2018-11-11T13:29:48.518Z,14.32
2018-11-11T13:30:55.298Z,14.35
2018-11-11T13:32:02.269Z,14.35
2018-11-11T13:33:11.452Z,14.56
2018-11-11T13:34:18.896Z,14.68
2018-11-11T13:35:27.043Z,14.98
2018-11-11T13:36:34.890Z,15.26
2018-11-11T13:37:45.269Z,15.41
2018-11-11T13:38:52.533Z,15.52
2018-11-11T13:40:00.911Z,15.59
2018-11-11T13:41:10.599Z,15.62
2018-11-11T13:42:19.420Z,15.64
2018-11-11T13:43:28.625Z,15.67
2018-11-11T13:44:36.390Z,15.72
2018-11-11T13:45:47.461Z,15.73
2018-11-11T13:46:57.869Z,15.59
2018-11-11T13:48:07.994Z,15.61
2018-11-11T13:49:17.857Z,15.37
2018-11-11T13:50:25.867Z,15.42
2018-11-11T13:51:37.782Z,15.42
2018-11-11T13:52:46.095Z,15.35
2018-11-11T13:53:53.301Z,15.26
2018-11-11T13:55:04.839Z,15.14
2018-11-11T13:56:13.511Z,15.10
2018-11-11T13:57:20.922Z,15.23
2018-11-11T13:58:31.094Z,15.01
2018-11-11T13:59:40.373Z,14.98
2018-11-11T14:00:48.883Z,14.91
2018-11-11T14:01:56.556Z,14.65
2018-11-11T14:03:03.228Z,14.82
2018-11-11T14:04:10.786Z,14.59
2018-11-11T14:05:22.233Z,14.61
2018-11-11T14:06:30.631Z,14.48
2018-11-11T14:07:38.724Z,14.50
2018-11-11T14:08:48.907Z,14.49
2018-11-11T14:09:57.288Z,14.35
2018-11-11T14:11:06.621Z,14.43
2018-11-11T14:12:15.912Z,14.37
2018-11-11T14:13:24.914Z,14.20
2018-11-11T14:14:33.376Z,14.54
2018-11-11T14:15:41.432Z,14.73
2018-11-11T14:16:50.172Z,14.68
2018-11-11T14:17:57.351Z,14.68
2018-11-11T14:19:04.098Z,14.71
2018-11-11T14:20:12.978Z,14.41
2018-11-11T14:21:19.408Z,14.57
2018-11-11T14:22:26.748Z,14.61
2018-11-11T14:23:32.924Z,14.49
2018-11-11T14:24:41.421Z,14.52
2018-11-11T14:25:48.741Z,14.40
2018-11-11T14:26:55.104Z,14.31
2018-11-11T14:28:01.537Z,14.45
2018-11-11T14:29:07.907Z,14.31
2018-11-11T14:30:15.732Z,14.12
2018-11-11T14:31:25.666Z,14.17
2018-11-11T14:32:36.032Z,14.07
2018-11-11T14:33:44.592Z,14.04
2018-11-11T14:34:52.814Z,14.13
2018-11-11T14:36:02.397Z,14.22
2018-11-11T14:37:08.530Z,14.05
2018-11-11T14:38:18.407Z,14.00
2018-11-11T14:39:26.895Z,13.91
2018-11-11T14:40:33.046Z,14.07
2018-11-11T14:41:39.343Z,14.29
2018-11-11T14:42:46.287Z,14.30
2018-11-11T14:43:52.393Z,14.51
2018-11-11T14:45:06.543Z,14.35
2018-11-11T14:46:17.408Z,14.35
2018-11-11T14:47:26.994Z,14.49
2018-11-11T14:48:35.719Z,14.19
2018-11-11T14:49:49.737Z,14.37
2018-11-11T14:50:59.076Z,14.09
2018-11-11T14:52:07.905Z,14.03
2018-11-11T14:53:16.984Z,14.12
2018-11-11T14:54:25.896Z,14.16
2018-11-11T14:55:39.996Z,14.26